createdAt,value
2022-09-05T00:00:21.875Z,96820.22
2022-09-05T00:03:13.342Z,96812.91
2022-09-05T00:06:01.968Z,96806.88
2022-09-05T00:09:00.541Z,96816.00
2022-09-05T00:11:55.437Z,96801.47
2022-09-05T00:15:16.627Z,96807.13
2022-09-05T00:20:13.250Z,96801.47
2022-09-05T00:24:37.780Z,96788.81
2022-09-05T00:24:42.315Z,96794.91
2022-09-05T00:27:22.669Z,96791.78
2022-09-05T00:31:50.894Z,96786.78
2022-09-05T00:33:17.511Z,96796.69
2022-09-05T00:35:53.305Z,96794.75
2022-09-05T00:38:27.535Z,96788.94
2022-09-05T00:41:08.707Z,96798.88
2022-09-05T00:43:39.449Z,96804.94
2022-09-05T00:46:19.027Z,96796.84
2022-09-05T00:49:23.641Z,96796.84
2022-09-05T00:51:56.182Z,96795.66
2022-09-05T00:54:46.158Z,96790.25
2022-09-05T00:57:36.755Z,96791.28
2022-09-05T01:00:16.414Z,96787.81
2022-09-05T01:03:10.628Z,96788.13
2022-09-05T01:05:49.216Z,96798.41
2022-09-05T01:08:34.254Z,96796.09
2022-09-05T01:11:06.648Z,96791.09
2022-09-05T01:13:54.509Z,96787.94
2022-09-05T01:16:42.116Z,96786.44
2022-09-05T01:19:28.465Z,96775.34
2022-09-05T01:22:39.909Z,96786.06
2022-09-05T01:25:36.211Z,96778.84
2022-09-05T01:29:15.630Z,96779.97
2022-09-05T01:31:28.781Z,96779.16
2022-09-05T01:34:16.828Z,96779.16
2022-09-05T01:37:24.938Z,96775.34
2022-09-05T01:40:24.326Z,96786.72
2022-09-05T01:43:06.102Z,96783.72
2022-09-05T01:45:45.940Z,96780.56
2022-09-05T01:48:47.547Z,96783.22
2022-09-05T01:51:42.097Z,96781.66
2022-09-05T01:54:30.777Z,96785.81
2022-09-05T01:57:07.342Z,96791.47
2022-09-05T01:59:46.176Z,96781.84
2022-09-05T02:02:38.214Z,96791.34
2022-09-05T02:05:14.007Z,96789.44
2022-09-05T02:08:03.101Z,96790.16
2022-09-05T02:10:42.759Z,96787.44
2022-09-05T02:13:30.716Z,96793.13
2022-09-05T02:16:06.358Z,96795.78
2022-09-05T02:18:47.840Z,96790.03
2022-09-05T02:21:57.115Z,96783.81
2022-09-05T02:24:32.835Z,96790.25
2022-09-05T02:28:04.524Z,96791.41
2022-09-05T02:30:25.218Z,96788.38
2022-09-05T02:32:57.393Z,96785.22
2022-09-05T02:35:55.224Z,96789.13
2022-09-05T02:45:02.164Z,96792.84
2022-09-05T02:45:06.540Z,96785.56
2022-09-05T02:45:21.694Z,96785.09
2022-09-05T02:47:23.709Z,96777.91
2022-09-05T02:54:55.528Z,96769.09
2022-09-05T02:57:35.240Z,96782.06
2022-09-05T02:57:38.340Z,96786.28
2022-09-05T02:59:36.338Z,96777.50
2022-09-05T03:02:26.188Z,96776.59
2022-09-05T03:05:05.450Z,96781.19
2022-09-05T03:07:46.102Z,96801.06
2022-09-05T03:10:54.529Z,96793.47
2022-09-05T03:13:59.186Z,96799.41
2022-09-05T03:16:58.413Z,96786.72
2022-09-05T03:19:53.714Z,96803.47
2022-09-05T03:22:49.378Z,96798.91
2022-09-05T03:25:28.921Z,96808.00
2022-09-05T03:28:31.653Z,96806.88
2022-09-05T03:31:33.479Z,96801.56
2022-09-05T03:34:27.623Z,96788.13
2022-09-05T03:37:09.341Z,96792.28
2022-09-05T03:40:15.822Z,96789.72
2022-09-05T03:43:10.410Z,96798.91
2022-09-05T03:45:59.081Z,96799.63
2022-09-05T03:48:54.927Z,96812.81
2022-09-05T03:57:10.566Z,96811.63
2022-09-05T03:57:14.941Z,96816.59
2022-09-05T03:57:54.303Z,96812.38
2022-09-05T04:00:29.456Z,96819.56
2022-09-05T04:07:31.022Z,96816.88
2022-09-05T04:08:24.962Z,96809.97
2022-09-05T04:09:06.952Z,96808.00
2022-09-05T04:11:39.946Z,96819.72
2022-09-05T04:14:45.875Z,96814.78
2022-09-05T04:17:36.051Z,96815.56
2022-09-05T04:20:11.179Z,96807.88
2022-09-05T04:23:08.550Z,96811.69
2022-09-05T04:25:44.099Z,96815.47
2022-09-05T04:28:22.745Z,96810.16
2022-09-05T04:31:09.461Z,96814.34
2022-09-05T04:33:57.502Z,96804.09
2022-09-05T04:36:28.975Z,96811.50
2022-09-05T04:39:17.334Z,96830.88
2022-09-05T04:41:59.884Z,96831.56
2022-09-05T04:44:46.182Z,96821.06
2022-09-05T04:47:18.684Z,96817.19
2022-09-05T04:50:05.710Z,96822.22
2022-09-05T04:52:42.165Z,96826.16
2022-09-05T04:55:17.468Z,96825.44
2022-09-05T04:58:07.217Z,96822.94
2022-09-05T05:05:42.146Z,96830.25
2022-09-05T05:06:17.346Z,96834.50
2022-09-05T05:06:43.963Z,96830.91
2022-09-05T05:09:22.760Z,96833.38
2022-09-05T05:18:00.194Z,96832.41
2022-09-05T05:18:08.472Z,96831.72
2022-09-05T05:18:56.000Z,96826.84
2022-09-05T05:21:29.253Z,96830.72
2022-09-05T05:24:15.405Z,96828.97
2022-09-05T05:27:09.406Z,96837.94
2022-09-05T05:29:53.809Z,96835.81
2022-09-05T05:32:46.021Z,96835.88
2022-09-05T05:35:27.582Z,96843.59
2022-09-05T05:38:22.658Z,96839.41
2022-09-05T05:41:21.060Z,96835.00
2022-09-05T05:43:49.782Z,96842.34
2022-09-05T05:46:29.704Z,96842.59
2022-09-05T05:49:10.384Z,96839.00
2022-09-05T05:52:01.256Z,96832.28
2022-09-05T05:55:24.374Z,96838.25
2022-09-05T05:58:12.115Z,96845.72
2022-09-05T06:00:51.455Z,96838.31
2022-09-05T06:03:36.332Z,96835.84
2022-09-05T06:06:33.872Z,96842.59
2022-09-05T06:12:46.312Z,96849.53
2022-09-05T06:14:58.126Z,96843.28
2022-09-05T06:16:06.459Z,96839.63
2022-09-05T06:18:49.981Z,96830.53
2022-09-05T06:22:08.691Z,96850.94
2022-09-05T06:24:41.175Z,96847.88
2022-09-05T06:27:43.882Z,96857.66
2022-09-05T06:30:57.225Z,96860.34
2022-09-05T06:33:58.066Z,96864.00
2022-09-05T06:36:54.585Z,96871.34
2022-09-05T06:40:05.773Z,96873.94
2022-09-05T06:42:44.411Z,96883.34
2022-09-05T06:45:27.687Z,96883.34
2022-09-05T06:48:44.537Z,96876.31
2022-09-05T06:51:46.323Z,96883.56
2022-09-05T06:54:32.628Z,96884.88
2022-09-05T06:57:08.399Z,96883.16
2022-09-05T06:59:55.915Z,96891.94
2022-09-05T07:02:59.909Z,96885.13
2022-09-05T07:05:42.720Z,96888.47
2022-09-05T07:08:33.111Z,96884.72
2022-09-05T07:11:15.928Z,96902.03
2022-09-05T07:14:10.078Z,96891.34
2022-09-05T07:16:51.832Z,96881.59
2022-09-05T07:19:27.090Z,96889.09
2022-09-05T07:22:06.150Z,96899.63
2022-09-05T07:24:55.683Z,96908.66
2022-09-05T07:27:48.408Z,96908.34
2022-09-05T07:30:28.480Z,96905.09
2022-09-05T07:32:57.847Z,96906.09
2022-09-05T07:35:39.807Z,96907.97
2022-09-05T07:38:18.244Z,96914.13
2022-09-05T07:40:58.116Z,96903.38
2022-09-05T07:43:39.441Z,96907.31
2022-09-05T07:46:14.728Z,96911.75
2022-09-05T07:48:50.415Z,96895.47
2022-09-05T07:56:53.933Z,96908.66
2022-09-05T07:56:59.807Z,96896.53
2022-09-05T07:57:31.281Z,96907.28
2022-09-05T08:00:05.799Z,96909.06
2022-09-05T08:02:32.374Z,96909.47
2022-09-05T08:05:04.643Z,96902.94
2022-09-05T08:07:49.061Z,96903.31
2022-09-05T08:10:35.607Z,96908.69
2022-09-05T08:13:34.112Z,96899.78
2022-09-05T08:16:09.927Z,96903.81
2022-09-05T08:18:56.717Z,96902.84
2022-09-05T08:21:30.326Z,96900.28
2022-09-05T08:24:20.463Z,96894.06
2022-09-05T08:27:02.035Z,96892.34
2022-09-05T08:29:37.012Z,96890.00
2022-09-05T08:32:13.007Z,96884.09
2022-09-05T08:35:13.975Z,96894.44
2022-09-05T08:37:43.060Z,96889.75
2022-09-05T08:40:37.210Z,96890.28
2022-09-05T08:44:36.167Z,96886.69
2022-09-05T08:46:42.706Z,96884.25
2022-09-05T08:49:37.893Z,96885.31
2022-09-05T08:52:22.017Z,96870.66
2022-09-05T08:55:10.505Z,96883.63
2022-09-05T08:58:00.800Z,96882.72
2022-09-05T09:00:32.532Z,96878.56
2022-09-05T09:03:23.957Z,96874.72
2022-09-05T09:06:14.044Z,96871.59
2022-09-05T09:08:54.317Z,96872.72
2022-09-05T09:11:42.018Z,96874.84
2022-09-05T09:14:30.803Z,96878.34
2022-09-05T09:17:19.503Z,96871.88
2022-09-05T09:20:04.975Z,96861.28
2022-09-05T09:23:40.044Z,96877.50
2022-09-05T09:26:16.979Z,96873.78
2022-09-05T09:28:50.119Z,96863.59
2022-09-05T09:31:26.039Z,96854.31
2022-09-05T09:34:13.896Z,96869.94
2022-09-05T09:37:18.105Z,96857.63
2022-09-05T09:40:03.213Z,96868.38
2022-09-05T09:42:54.101Z,96864.06
2022-09-05T09:45:35.843Z,96862.06
2022-09-05T09:48:15.344Z,96856.09
2022-09-05T09:51:17.324Z,96854.00
2022-09-05T09:53:57.907Z,96859.31
2022-09-05T09:56:57.351Z,96853.91
2022-09-05T09:59:54.815Z,96853.16
2022-09-05T10:08:34.579Z,96853.59
2022-09-05T10:10:50.463Z,96851.59
2022-09-05T10:11:09.108Z,96850.69
2022-09-05T10:12:16.238Z,96846.03
2022-09-05T10:15:20.969Z,96845.97
2022-09-05T10:18:27.600Z,96845.66
2022-09-05T10:21:19.950Z,96849.63
2022-09-05T10:24:12.807Z,96849.25
2022-09-05T10:27:26.783Z,96844.97
2022-09-05T10:30:15.016Z,96843.84
2022-09-05T10:35:06.118Z,96850.94
2022-09-05T10:35:59.215Z,96833.38
2022-09-05T10:38:36.633Z,96836.59
2022-09-05T10:41:21.169Z,96832.44
2022-09-05T10:43:58.523Z,96820.16
2022-09-05T10:46:56.105Z,96823.72
2022-09-05T10:49:30.099Z,96835.53
2022-09-05T10:52:17.907Z,96816.16
2022-09-05T10:55:15.145Z,96811.91
2022-09-05T10:58:12.586Z,96806.63
2022-09-05T11:02:21.587Z,96815.69
2022-09-05T11:04:00.717Z,96816.75
2022-09-05T11:06:46.476Z,96809.69
2022-09-05T11:09:39.361Z,96815.50
2022-09-05T11:12:37.004Z,96812.91
2022-09-05T11:15:18.349Z,96804.38
2022-09-05T11:17:56.909Z,96807.72
2022-09-05T11:20:44.583Z,96816.16
2022-09-05T11:23:21.027Z,96816.81
2022-09-05T11:25:57.704Z,96816.50
2022-09-05T11:29:00.824Z,96810.88
2022-09-05T11:34:21.098Z,96814.63
2022-09-05T11:39:45.691Z,96814.66
2022-09-05T11:39:50.925Z,96803.50
2022-09-05T11:41:25.896Z,96801.34
2022-09-05T11:44:24.473Z,96795.69
2022-09-05T11:47:30.155Z,96795.91
2022-09-05T11:50:25.754Z,96785.88
2022-09-05T11:52:55.579Z,96790.38
2022-09-05T11:55:55.522Z,96791.84
2022-09-05T11:58:48.381Z,96786.19
2022-09-05T12:01:42.837Z,96785.94
2022-09-05T12:04:26.081Z,96785.72
2022-09-05T12:07:15.585Z,96786.31
2022-09-05T12:10:10.418Z,96782.59
2022-09-05T12:13:32.223Z,96772.09
2022-09-05T12:16:08.576Z,96779.56
2022-09-05T12:19:19.190Z,96780.53
2022-09-05T12:22:18.614Z,96775.44
2022-09-05T12:25:26.308Z,96777.50
2022-09-05T12:28:48.378Z,96760.50
2022-09-05T12:32:32.231Z,96770.59
2022-09-05T12:36:06.213Z,96763.28
2022-09-05T12:40:27.654Z,96766.22
2022-09-05T12:40:57.554Z,96763.66
2022-09-05T12:42:54.634Z,96762.47
2022-09-05T12:45:37.506Z,96765.84
2022-09-05T12:48:07.194Z,96758.22
2022-09-05T12:50:40.629Z,96762.75
2022-09-05T12:53:14.069Z,96743.75
2022-09-05T12:56:23.518Z,96741.06
2022-09-05T13:02:58.936Z,96744.75
2022-09-05T13:03:13.937Z,96726.16
2022-09-05T13:04:29.966Z,96731.84
2022-09-05T13:07:06.234Z,96738.53
2022-09-05T13:10:48.889Z,96737.44
2022-09-05T13:14:52.850Z,96740.44
2022-09-05T13:15:23.257Z,96741.34
2022-09-05T13:18:02.280Z,96738.25
2022-09-05T13:20:39.653Z,96737.19
2022-09-05T13:23:18.703Z,96738.47
2022-09-05T13:25:58.507Z,96729.50
2022-09-05T13:28:43.014Z,96735.81
2022-09-05T13:37:53.647Z,96726.03
2022-09-05T13:38:10.405Z,96735.06
2022-09-05T13:38:11.972Z,96726.78
2022-09-05T13:40:10.509Z,96722.41
2022-09-05T13:42:44.661Z,96723.78
2022-09-05T13:45:18.656Z,96717.66
2022-09-05T13:48:27.507Z,96714.19
2022-09-05T13:50:59.989Z,96701.53
2022-09-05T13:53:37.421Z,96704.34
2022-09-05T13:56:24.108Z,96709.53
2022-09-05T13:59:01.499Z,96689.13
2022-09-05T14:02:25.943Z,96706.72
2022-09-05T14:05:21.172Z,96701.66
2022-09-05T14:08:24.006Z,96697.94
2022-09-05T14:11:07.943Z,96704.47
2022-09-05T14:13:49.419Z,96700.22
2022-09-05T14:16:25.211Z,96698.94
2022-09-05T14:19:11.883Z,96697.63
2022-09-05T14:21:41.471Z,96690.38
2022-09-05T14:24:27.359Z,96693.97
2022-09-05T14:27:11.054Z,96691.16
2022-09-05T14:29:38.940Z,96693.41
2022-09-05T14:37:45.590Z,96692.47
2022-09-05T14:37:55.739Z,96695.94
2022-09-05T14:38:43.792Z,96694.13
2022-09-05T14:42:03.500Z,96697.03
2022-09-05T14:44:41.256Z,96686.88
2022-09-05T14:47:35.030Z,96675.28
2022-09-05T14:50:21.353Z,96679.09
2022-09-05T14:56:51.596Z,96675.03
2022-09-05T15:02:48.693Z,96669.13
2022-09-05T15:02:56.625Z,96667.72
2022-09-05T15:05:09.273Z,96668.34
2022-09-05T15:07:41.851Z,96656.50
2022-09-05T15:12:21.099Z,96668.81
2022-09-05T15:13:10.529Z,96667.97
2022-09-05T15:16:02.383Z,96668.50
2022-09-05T15:18:39.003Z,96661.38
2022-09-05T15:21:17.880Z,96641.06
2022-09-05T15:24:03.184Z,96660.09
2022-09-05T15:26:31.157Z,96660.44
2022-09-05T15:29:14.726Z,96650.25
2022-09-05T15:31:41.951Z,96651.56
2022-09-05T15:34:26.627Z,96656.53
2022-09-05T15:36:54.993Z,96653.59
2022-09-05T15:39:35.810Z,96647.25
2022-09-05T15:42:18.509Z,96640.22
2022-09-05T15:45:09.095Z,96634.81
2022-09-05T15:47:33.899Z,96625.53
2022-09-05T15:50:04.877Z,96636.88
2022-09-05T15:52:43.971Z,96644.44
2022-09-05T15:55:16.655Z,96642.03
2022-09-05T15:57:48.476Z,96637.81
2022-09-05T16:00:29.979Z,96650.47
2022-09-05T16:03:27.127Z,96644.63
2022-09-05T16:10:28.191Z,96641.09
2022-09-05T16:10:57.611Z,96613.53
2022-09-05T16:14:39.427Z,96636.41
2022-09-05T16:23:12.239Z,96634.25
2022-09-05T16:23:25.846Z,96631.56
2022-09-05T16:23:40.627Z,96632.00
2022-09-05T16:26:19.122Z,96631.78
2022-09-05T16:29:00.092Z,96627.16
2022-09-05T16:31:45.096Z,96630.94
2022-09-05T16:34:23.956Z,96629.06
2022-09-05T16:37:08.517Z,96632.38
2022-09-05T16:39:40.253Z,96621.34
2022-09-05T16:42:17.488Z,96625.22
2022-09-05T16:44:55.427Z,96629.41
2022-09-05T16:47:36.599Z,96629.50
2022-09-05T16:50:16.710Z,96628.78
2022-09-05T16:52:54.068Z,96628.41
2022-09-05T16:55:33.749Z,96626.16
2022-09-05T16:58:14.234Z,96619.94
2022-09-05T17:00:59.245Z,96627.88
2022-09-05T17:03:43.230Z,96619.72
2022-09-05T17:06:26.816Z,96616.19
2022-09-05T17:08:58.196Z,96621.75
2022-09-05T17:12:00.256Z,96619.44
2022-09-05T17:14:35.475Z,96618.19
2022-09-05T17:17:20.218Z,96626.41
2022-09-05T17:20:06.353Z,96613.34
2022-09-05T17:27:25.892Z,96622.13
2022-09-05T17:29:26.223Z,96633.53
2022-09-05T17:29:27.402Z,96625.16
2022-09-05T17:32:01.773Z,96628.00
2022-09-05T17:34:49.743Z,96615.47
2022-09-05T17:37:50.275Z,96623.34
2022-09-05T17:40:36.471Z,96620.94
2022-09-05T17:43:28.911Z,96614.22
2022-09-05T17:46:23.554Z,96620.47
2022-09-05T17:49:18.580Z,96619.94
2022-09-05T17:51:41.616Z,96622.81
2022-09-05T17:54:26.387Z,96604.72
2022-09-05T17:56:53.495Z,96631.84
2022-09-05T17:59:20.310Z,96631.13
2022-09-05T18:02:13.595Z,96627.88
2022-09-05T18:04:42.815Z,96635.06
2022-09-05T18:07:29.493Z,96644.44
2022-09-05T18:10:12.252Z,96638.84
2022-09-05T18:15:32.734Z,96638.00
2022-09-05T18:18:08.429Z,96642.69
2022-09-05T18:20:39.443Z,96641.38
2022-09-05T18:23:38.895Z,96639.19
2022-09-05T18:26:09.388Z,96651.22
2022-09-05T18:29:00.562Z,96660.00
2022-09-05T18:31:42.568Z,96658.09
2022-09-05T18:34:13.613Z,96637.72
2022-09-05T18:36:48.671Z,96657.25
2022-09-05T18:39:27.571Z,96655.44
2022-09-05T18:42:33.375Z,96659.75
2022-09-05T18:45:15.495Z,96659.03
2022-09-05T18:47:52.968Z,96658.72
2022-09-05T18:50:33.699Z,96661.53
2022-09-05T18:53:09.533Z,96660.06
2022-09-05T18:56:10.054Z,96651.34
2022-09-05T18:58:51.883Z,96656.91
2022-09-05T19:01:30.375Z,96652.84
2022-09-05T19:04:02.027Z,96641.16
2022-09-05T19:06:36.664Z,96649.53
2022-09-05T19:09:15.026Z,96645.03
2022-09-05T19:11:57.821Z,96652.25
2022-09-05T19:14:56.596Z,96639.28
2022-09-05T19:17:38.285Z,96648.81
2022-09-05T19:20:32.534Z,96655.25
2022-09-05T19:23:10.970Z,96655.34
2022-09-05T19:25:46.856Z,96647.03
2022-09-05T19:33:18.411Z,96661.19
2022-09-05T19:36:56.444Z,96655.06
2022-09-05T19:37:23.871Z,96641.69
2022-09-05T19:37:38.748Z,96641.41
2022-09-05T19:47:27.752Z,96643.09
2022-09-05T19:47:37.946Z,96649.25
2022-09-05T19:47:38.547Z,96641.19
2022-09-05T19:48:35.043Z,96639.41
2022-09-05T19:51:17.552Z,96635.94
2022-09-05T19:53:47.380Z,96634.41
2022-09-05T19:56:15.549Z,96633.25
2022-09-05T19:58:45.808Z,96633.19
2022-09-05T20:01:17.917Z,96634.28
2022-09-05T20:03:49.499Z,96629.28
2022-09-05T20:06:28.854Z,96630.84
2022-09-05T20:09:14.619Z,96634.81
2022-09-05T20:11:52.607Z,96639.06
2022-09-05T20:14:30.301Z,96631.00
2022-09-05T20:17:01.493Z,96630.19
2022-09-05T20:19:34.850Z,96628.69
2022-09-05T20:22:47.146Z,96627.53
2022-09-05T20:24:59.663Z,96629.47
2022-09-05T20:27:29.626Z,96633.31
2022-09-05T20:30:04.197Z,96629.16
2022-09-05T20:32:39.904Z,96621.19
2022-09-05T20:42:35.566Z,96617.34
2022-09-05T20:43:31.363Z,96630.28
2022-09-05T20:43:32.212Z,96626.84
2022-09-05T20:44:15.837Z,96625.28
2022-09-05T20:49:22.908Z,96631.81
2022-09-05T20:54:16.613Z,96624.59
2022-09-05T20:54:17.181Z,96621.59
2022-09-05T20:55:39.591Z,96604.44
2022-09-05T20:58:31.764Z,96613.56
2022-09-05T21:01:21.436Z,96618.16
2022-09-05T21:04:03.969Z,96614.38
2022-09-05T21:06:33.361Z,96611.34
2022-09-05T21:09:24.866Z,96616.31
2022-09-05T21:11:58.612Z,96612.84
2022-09-05T21:14:28.424Z,96605.97
2022-09-05T21:17:11.977Z,96603.66
2022-09-05T21:19:52.077Z,96601.75
2022-09-05T21:22:25.423Z,96602.91
2022-09-05T21:25:19.887Z,96596.09
2022-09-05T21:28:07.431Z,96592.72
2022-09-05T21:30:39.810Z,96594.56
2022-09-05T21:33:16.004Z,96595.69
2022-09-05T21:35:47.238Z,96591.88
2022-09-05T21:38:16.400Z,96592.66
2022-09-05T21:41:04.228Z,96597.59
2022-09-05T21:47:33.334Z,96601.41
2022-09-05T21:47:44.825Z,96593.47
2022-09-05T21:49:15.319Z,96596.53
2022-09-05T21:51:44.746Z,96598.06
2022-09-05T21:59:14.070Z,96593.47
2022-09-05T21:59:32.701Z,96599.97
2022-09-05T21:59:55.584Z,96612.19
2022-09-05T22:02:23.710Z,96596.94
2022-09-05T22:05:02.223Z,96605.34
2022-09-05T22:07:33.268Z,96600.03
2022-09-05T22:10:03.416Z,96601.94
2022-09-05T22:12:38.853Z,96604.97
2022-09-05T22:15:27.392Z,96597.72
2022-09-05T22:17:58.448Z,96600.03
2022-09-05T22:20:43.117Z,96610.31
2022-09-05T22:23:10.358Z,96605.72
2022-09-05T22:25:38.819Z,96610.66
2022-09-05T22:28:13.989Z,96601.16
2022-09-05T22:30:40.467Z,96596.22
2022-09-05T22:33:07.963Z,96598.16
2022-09-05T22:35:37.026Z,96599.69
2022-09-05T22:38:10.941Z,96589.00
2022-09-05T22:40:40.809Z,96605.00
2022-09-05T22:43:09.122Z,96584.03
2022-09-05T22:45:38.114Z,96587.84
2022-09-05T22:48:14.065Z,96570.72
2022-09-05T22:50:42.281Z,96589.41
2022-09-05T22:53:09.819Z,96573.38
2022-09-05T22:55:38.870Z,96576.84
2022-09-05T22:58:06.826Z,96583.72
2022-09-05T23:00:34.588Z,96576.06
2022-09-05T23:03:03.497Z,96582.56
2022-09-05T23:05:30.990Z,96581.81
2022-09-05T23:07:58.481Z,96575.31
2022-09-05T23:10:26.605Z,96574.19
2022-09-05T23:12:53.532Z,96568.84
2022-09-05T23:15:20.512Z,96570.00
2022-09-05T23:17:54.595Z,96571.16
2022-09-05T23:20:22.136Z,96566.59
2022-09-05T23:22:48.670Z,96566.22
2022-09-05T23:25:15.326Z,96563.53
2022-09-05T23:27:41.785Z,96559.34
2022-09-05T23:30:09.515Z,96556.69
2022-09-05T23:32:35.979Z,96571.19
2022-09-05T23:35:02.913Z,96564.31
2022-09-05T23:37:29.377Z,96544.47
2022-09-05T23:39:55.876Z,96559.72
2022-09-05T23:42:22.384Z,96558.59
2022-09-05T23:44:48.816Z,96557.81
2022-09-05T23:47:15.356Z,96561.63
2022-09-05T23:49:41.792Z,96552.47
2022-09-05T23:52:08.240Z,96557.03
2022-09-05T23:54:34.671Z,96549.44
2022-09-05T23:57:01.138Z,96556.28
2022-09-05T23:59:28.911Z,96542.94
